createdAt,value
2023-05-01T00:01:31.204Z,5.22
2023-05-01T00:03:33.496Z,5.70
2023-05-01T00:05:35.058Z,7.32
2023-05-01T00:07:36.790Z,4.93
2023-05-01T00:09:38.166Z,8.63
2023-05-01T00:11:39.585Z,5.38
2023-05-01T00:13:41.576Z,5.75
2023-05-01T00:15:43.212Z,9.32
2023-05-01T00:17:44.655Z,7.35
2023-05-01T00:19:46.048Z,5.80
2023-05-01T00:21:48.535Z,9.00
2023-05-01T00:23:50.163Z,6.28
2023-05-01T00:25:51.533Z,4.70
2023-05-01T00:27:52.953Z,6.70
2023-05-01T00:29:54.683Z,5.13
2023-05-01T00:31:56.761Z,6.57
2023-05-01T00:33:58.259Z,7.13
2023-05-01T00:35:59.689Z,7.38
2023-05-01T00:38:01.212Z,8.45
2023-05-01T00:40:03.001Z,5.47
2023-05-01T00:42:04.441Z,7.60
2023-05-01T00:44:06.186Z,5.30
2023-05-01T00:46:08.543Z,5.03
2023-05-01T00:48:10.890Z,5.68
2023-05-01T00:50:13.643Z,6.22
2023-05-01T00:52:15.273Z,7.10
2023-05-01T00:54:17.870Z,6.25
2023-05-01T00:56:19.466Z,5.95
2023-05-01T00:58:21.012Z,7.10
2023-05-01T01:00:24.482Z,4.70
2023-05-01T01:02:27.207Z,6.78
2023-05-01T01:04:31.551Z,3.95
2023-05-01T01:06:51.594Z,5.93
2023-05-01T01:09:07.963Z,6.38
2023-05-01T01:11:19.794Z,5.35
2023-05-01T01:13:32.369Z,6.47
2023-05-01T01:15:46.001Z,7.07
2023-05-01T01:18:01.744Z,5.03
2023-05-01T01:20:10.994Z,5.10
2023-05-01T01:22:20.945Z,5.03
2023-05-01T01:25:06.433Z,7.47
2023-05-01T01:27:38.485Z,4.05
2023-05-01T01:29:48.780Z,5.13
2023-05-01T01:32:18.015Z,7.38
2023-05-01T01:34:28.157Z,4.30
2023-05-01T01:36:40.078Z,6.00
2023-05-01T01:38:51.408Z,8.25
2023-05-01T01:40:58.560Z,6.97
2023-05-01T01:43:05.308Z,6.25
2023-05-01T01:45:19.252Z,5.50
2023-05-01T01:47:26.932Z,7.03
2023-05-01T01:49:31.308Z,6.68
2023-05-01T01:51:34.330Z,7.97
2023-05-01T01:53:37.707Z,4.18
2023-05-01T01:55:42.093Z,4.97
2023-05-01T01:57:46.705Z,7.32
2023-05-01T01:59:49.778Z,7.05
2023-05-01T02:01:53.430Z,5.40
2023-05-01T02:03:55.483Z,6.47
2023-05-01T02:05:58.430Z,4.38
2023-05-01T02:08:00.588Z,4.78
2023-05-01T02:10:04.063Z,5.38
2023-05-01T02:12:09.829Z,6.97
2023-05-01T02:14:11.832Z,6.70
2023-05-01T02:16:14.562Z,6.70
2023-05-01T02:18:16.597Z,7.63
2023-05-01T02:20:19.665Z,5.72
2023-05-01T02:22:26.255Z,6.13
2023-05-01T02:24:30.086Z,6.18
2023-05-01T02:26:35.833Z,6.72
2023-05-01T02:28:41.415Z,6.03
2023-05-01T02:30:42.914Z,4.75
2023-05-01T02:32:44.974Z,4.90
2023-05-01T02:34:46.432Z,4.45
2023-05-01T02:36:47.901Z,4.28
2023-05-01T02:38:51.060Z,6.75
2023-05-01T02:40:56.732Z,6.30
2023-05-01T02:43:02.204Z,7.97
2023-05-01T02:45:07.449Z,6.15
2023-05-01T02:47:12.643Z,5.25
2023-05-01T02:49:16.679Z,5.70
2023-05-01T02:51:19.628Z,5.93
2023-05-01T02:53:22.310Z,4.82
2023-05-01T02:55:23.882Z,6.13
2023-05-01T02:57:25.883Z,7.40
2023-05-01T02:59:27.267Z,5.25
2023-05-01T03:01:29.486Z,6.47
2023-05-01T03:03:30.967Z,6.85
2023-05-01T03:05:32.966Z,4.18
2023-05-01T03:07:35.345Z,3.97
2023-05-01T03:09:37.077Z,4.82
2023-05-01T03:11:38.526Z,6.30
2023-05-01T03:13:39.962Z,5.65
2023-05-01T03:15:41.809Z,7.93
2023-05-01T03:17:43.301Z,5.78
2023-05-01T03:19:44.863Z,5.95
2023-05-01T03:21:46.290Z,5.30
2023-05-01T03:23:47.726Z,5.57
2023-05-01T03:25:49.719Z,5.22
2023-05-01T03:27:53.128Z,5.00
2023-05-01T03:29:56.726Z,5.30
2023-05-01T03:31:58.433Z,7.57
2023-05-01T03:33:59.929Z,5.90
2023-05-01T03:36:04.069Z,4.70
2023-05-01T03:38:05.962Z,6.60
2023-05-01T03:40:08.004Z,4.55
2023-05-01T03:42:09.397Z,8.55
2023-05-01T03:44:10.983Z,5.60
2023-05-01T03:46:12.404Z,5.40
2023-05-01T03:48:14.218Z,5.32
2023-05-01T03:50:16.001Z,6.57
2023-05-01T03:52:17.406Z,5.47
2023-05-01T03:54:18.876Z,5.80
2023-05-01T03:56:20.296Z,5.72
2023-05-01T03:58:22.224Z,5.05
2023-05-01T04:00:24.143Z,5.45
2023-05-01T04:02:26.088Z,7.88
2023-05-01T04:04:29.699Z,5.20
2023-05-01T04:06:31.578Z,7.88
2023-05-01T04:08:33.097Z,7.38
2023-05-01T04:10:34.559Z,5.07
2023-05-01T04:12:36.101Z,6.95
2023-05-01T04:14:37.510Z,7.30
2023-05-01T04:16:39.178Z,6.85
2023-05-01T04:18:40.699Z,7.35
2023-05-01T04:20:42.323Z,5.78
2023-05-01T04:22:43.716Z,6.15
2023-05-01T04:24:45.592Z,5.70
2023-05-01T04:26:47.018Z,7.50
2023-05-01T04:28:48.436Z,5.30
2023-05-01T04:30:50.001Z,5.82
2023-05-01T04:32:51.466Z,6.57
2023-05-01T04:34:53.601Z,5.32
2023-05-01T04:37:00.112Z,8.98
2023-05-01T04:39:03.037Z,5.03
2023-05-01T04:41:07.525Z,5.63
2023-05-01T04:43:09.158Z,6.50
2023-05-01T04:45:11.044Z,6.93
2023-05-01T04:47:12.615Z,6.80
2023-05-01T04:49:14.389Z,5.68
2023-05-01T04:51:15.828Z,5.20
2023-05-01T04:53:17.573Z,5.15
2023-05-01T04:55:19.005Z,5.15
2023-05-01T04:57:20.516Z,6.13
2023-05-01T04:59:22.001Z,7.25
2023-05-01T05:01:23.512Z,4.47
2023-05-01T05:03:24.999Z,4.55
2023-05-01T05:05:26.488Z,6.47
2023-05-01T05:07:27.867Z,10.07
2023-05-01T05:09:29.267Z,5.85
2023-05-01T05:11:31.039Z,6.80
2023-05-01T05:13:32.429Z,5.68
2023-05-01T05:15:33.827Z,5.72
2023-05-01T05:17:35.331Z,6.03
2023-05-01T05:19:36.743Z,5.00
2023-05-01T05:21:38.148Z,6.50
2023-05-01T05:23:39.598Z,5.18
2023-05-01T05:25:41.533Z,7.15
2023-05-01T05:27:42.901Z,6.40
2023-05-01T05:29:44.540Z,6.03
2023-05-01T05:31:47.314Z,6.75
2023-05-01T05:33:48.902Z,7.00
2023-05-01T05:35:53.191Z,7.80
2023-05-01T05:37:54.657Z,7.32
2023-05-01T05:39:56.851Z,6.38
2023-05-01T05:41:58.967Z,6.28
2023-05-01T05:44:00.463Z,5.68
2023-05-01T05:46:02.070Z,7.60
2023-05-01T05:48:04.249Z,5.65
2023-05-01T05:50:07.326Z,6.95
2023-05-01T05:52:08.731Z,7.97
2023-05-01T05:54:10.494Z,7.13
2023-05-01T05:56:11.880Z,6.32
2023-05-01T05:58:14.975Z,6.78
2023-05-01T06:00:17.218Z,4.85
2023-05-01T06:02:18.854Z,5.25
2023-05-01T06:04:20.394Z,5.90
2023-05-01T06:06:22.092Z,6.63
2023-05-01T06:08:23.710Z,5.25
2023-05-01T06:10:25.183Z,7.28
2023-05-01T06:12:26.779Z,5.78
2023-05-01T06:14:28.530Z,5.53
2023-05-01T06:16:30.163Z,6.60
2023-05-01T06:18:31.672Z,6.97
2023-05-01T06:20:33.200Z,5.45
2023-05-01T06:22:34.678Z,5.45
2023-05-01T06:24:36.754Z,8.95
2023-05-01T06:26:38.188Z,4.50
2023-05-01T06:28:39.551Z,4.75
2023-05-01T06:30:41.548Z,5.10
2023-05-01T06:32:43.743Z,5.43
2023-05-01T06:34:45.302Z,5.35
2023-05-01T06:36:46.696Z,4.93
2023-05-01T06:38:49.216Z,10.57
2023-05-01T06:40:50.755Z,5.57
2023-05-01T06:42:52.460Z,5.68
2023-05-01T06:44:53.843Z,4.32
2023-05-01T06:46:56.819Z,6.82
2023-05-01T06:48:58.246Z,6.38
2023-05-01T06:50:59.641Z,5.93
2023-05-01T06:53:02.651Z,7.22
2023-05-01T06:55:04.409Z,6.35
2023-05-01T06:57:05.832Z,8.10
2023-05-01T06:59:07.300Z,8.10
2023-05-01T07:01:08.773Z,9.68
2023-05-01T07:03:10.226Z,10.40
2023-05-01T07:05:12.259Z,10.80
2023-05-01T07:07:13.842Z,6.80
2023-05-01T07:09:15.379Z,4.57
2023-05-01T07:11:16.776Z,6.60
2023-05-01T07:13:18.264Z,5.03
2023-05-01T07:15:19.903Z,5.50
2023-05-01T07:17:21.371Z,6.75
2023-05-01T07:19:22.847Z,5.13
2023-05-01T07:21:24.522Z,3.88
2023-05-01T07:23:26.038Z,3.67
2023-05-01T07:25:28.138Z,4.05
2023-05-01T07:27:29.909Z,7.40
2023-05-01T07:29:31.282Z,3.83
2023-05-01T07:33:34.196Z,5.22
2023-05-01T07:35:36.270Z,6.57
2023-05-01T07:37:37.675Z,4.20
2023-05-01T07:39:39.112Z,4.65
2023-05-01T07:41:40.580Z,4.13
2023-05-01T07:43:41.953Z,4.38
2023-05-01T07:45:55.213Z,3.97
2023-05-01T07:47:57.092Z,3.90
2023-05-01T07:49:58.867Z,3.55
2023-05-01T07:52:00.368Z,3.95
2023-05-01T07:54:11.253Z,4.35
2023-05-01T07:56:12.697Z,5.28
2023-05-01T07:58:14.118Z,7.22
2023-05-01T08:00:16.105Z,5.65
2023-05-01T08:02:17.821Z,4.38
2023-05-01T08:04:21.560Z,3.78
2023-05-01T08:06:23.114Z,5.60
2023-05-01T08:08:25.060Z,3.72
2023-05-01T08:10:28.332Z,5.20
2023-05-01T08:12:31.168Z,5.95
2023-05-01T08:14:32.646Z,4.78
2023-05-01T08:16:35.477Z,4.60
2023-05-01T08:18:36.927Z,7.75
2023-05-01T08:20:38.359Z,5.20
2023-05-01T08:22:39.763Z,4.20
2023-05-01T08:24:42.731Z,4.57
2023-05-01T08:26:44.334Z,4.80
2023-05-01T08:28:45.748Z,5.15
2023-05-01T08:30:49.072Z,3.90
2023-05-01T08:32:50.661Z,5.50
2023-05-01T08:34:52.454Z,3.95
2023-05-01T08:36:54.042Z,4.55
2023-05-01T08:38:55.471Z,2.95
2023-05-01T08:40:58.816Z,4.13
2023-05-01T08:43:01.753Z,3.88
2023-05-01T08:45:04.751Z,3.58
2023-05-01T08:47:16.716Z,4.65
2023-05-01T08:49:21.541Z,2.97
2023-05-01T08:51:24.761Z,5.45
2023-05-01T08:53:27.298Z,3.58
2023-05-01T08:55:31.341Z,3.83
2023-05-01T08:57:33.827Z,3.50
2023-05-01T08:59:36.101Z,5.30
2023-05-01T09:01:38.394Z,7.05
2023-05-01T09:03:40.185Z,4.25
2023-05-01T09:05:41.618Z,3.83
2023-05-01T09:07:43.945Z,3.78
2023-05-01T09:09:45.425Z,3.40
2023-05-01T09:11:47.040Z,3.35
2023-05-01T09:13:48.947Z,5.15
2023-05-01T09:15:50.460Z,3.70
2023-05-01T09:17:51.966Z,4.40
2023-05-01T09:19:53.664Z,4.10
2023-05-01T09:21:55.899Z,3.90
2023-05-01T09:23:57.408Z,5.63
2023-05-01T09:25:59.696Z,4.47
2023-05-01T09:28:01.829Z,3.65
2023-05-01T09:30:05.958Z,3.95
2023-05-01T09:32:15.059Z,4.40
2023-05-01T09:34:21.789Z,4.38
2023-05-01T09:36:25.147Z,4.18
2023-05-01T09:38:29.046Z,2.55
2023-05-01T09:40:31.361Z,4.18
2023-05-01T09:42:33.898Z,7.55
2023-05-01T09:44:43.078Z,4.80
2023-05-01T09:46:44.953Z,5.72
2023-05-01T09:48:58.668Z,3.97
2023-05-01T09:51:00.306Z,3.25
2023-05-01T09:53:04.616Z,2.53
2023-05-01T09:55:17.022Z,3.65
2023-05-01T09:57:34.865Z,5.10
2023-05-01T09:59:36.388Z,4.43
2023-05-01T10:01:42.951Z,3.55
2023-05-01T10:03:46.002Z,3.80
2023-05-01T10:05:47.892Z,3.22
2023-05-01T10:08:01.088Z,4.55
2023-05-01T10:10:21.994Z,3.78
2023-05-01T10:12:28.271Z,4.95
2023-05-01T10:14:30.483Z,4.95
2023-05-01T10:16:35.030Z,3.17
2023-05-01T10:18:37.504Z,2.10
2023-05-01T10:20:39.150Z,2.42
2023-05-01T10:22:41.523Z,4.10
2023-05-01T10:24:46.184Z,1.70
2023-05-01T10:26:49.129Z,3.20
2023-05-01T10:28:50.626Z,2.92
2023-05-01T10:30:53.981Z,4.97
2023-05-01T10:32:55.611Z,2.35
2023-05-01T10:35:08.623Z,1.92
2023-05-01T10:39:34.411Z,2.63
2023-05-01T10:42:01.737Z,2.60
2023-05-01T10:44:34.004Z,2.35
2023-05-01T10:46:35.553Z,4.30
2023-05-01T10:48:44.064Z,3.08
2023-05-01T10:51:23.190Z,3.67
2023-05-01T10:53:25.844Z,6.07
2023-05-01T10:55:35.549Z,4.13
2023-05-01T10:57:44.401Z,3.10
2023-05-01T11:00:04.937Z,2.65
2023-05-01T11:02:22.241Z,3.92
2023-05-01T11:04:30.199Z,3.47
2023-05-01T11:06:32.282Z,3.83
2023-05-01T11:08:38.777Z,2.95
2023-05-01T11:10:40.299Z,2.55
2023-05-01T11:12:44.809Z,6.03
2023-05-01T11:14:52.388Z,3.08
2023-05-01T11:16:53.881Z,2.83
2023-05-01T11:18:55.352Z,2.90
2023-05-01T11:20:57.012Z,2.55
2023-05-01T11:22:58.804Z,2.50
2023-05-01T11:25:04.538Z,3.78
2023-05-01T11:27:06.810Z,2.90
2023-05-01T11:29:12.027Z,3.17
2023-05-01T11:31:20.883Z,3.38
2023-05-01T11:33:25.734Z,3.35
2023-05-01T11:35:28.419Z,4.00
2023-05-01T11:37:40.902Z,2.72
2023-05-01T11:39:52.668Z,3.38
2023-05-01T11:42:06.977Z,3.35
2023-05-01T11:44:08.470Z,4.57
2023-05-01T11:46:09.933Z,3.42
2023-05-01T11:48:18.313Z,3.75
2023-05-01T11:50:21.904Z,3.97
2023-05-01T11:52:23.385Z,2.78
2023-05-01T11:54:25.018Z,7.93
2023-05-01T11:56:27.688Z,3.75
2023-05-01T11:58:33.994Z,3.67
2023-05-01T12:00:43.702Z,3.38
2023-05-01T12:03:08.380Z,3.47
2023-05-01T12:05:17.246Z,2.70
2023-05-01T12:07:22.719Z,2.05
2023-05-01T12:09:27.022Z,2.60
2023-05-01T12:11:28.618Z,3.03
2023-05-01T12:13:30.150Z,3.80
2023-05-01T12:15:37.208Z,3.78
2023-05-01T12:17:38.777Z,2.22
2023-05-01T12:19:49.772Z,3.15
2023-05-01T12:22:06.932Z,2.90
2023-05-01T12:24:10.260Z,3.05
2023-05-01T12:26:25.708Z,2.53
2023-05-01T12:28:27.888Z,2.60
2023-05-01T12:30:29.834Z,2.40
2023-05-01T12:32:33.569Z,2.95
2023-05-01T12:34:35.115Z,7.22
2023-05-01T12:36:37.729Z,2.45
2023-05-01T12:38:39.146Z,1.98
2023-05-01T12:40:50.630Z,3.70
2023-05-01T12:43:15.203Z,4.93
2023-05-01T12:45:16.811Z,3.08
2023-05-01T12:47:18.277Z,2.55
2023-05-01T12:49:20.833Z,2.78
2023-05-01T12:51:22.795Z,2.13
2023-05-01T12:53:25.764Z,2.58
2023-05-01T12:55:27.305Z,2.17
2023-05-01T12:57:28.800Z,2.22
2023-05-01T12:59:31.200Z,4.07
2023-05-01T13:01:32.620Z,2.85
2023-05-01T13:03:36.997Z,3.53
2023-05-01T13:05:51.531Z,2.92
2023-05-01T13:07:53.034Z,3.45
2023-05-01T13:10:00.051Z,3.78
2023-05-01T13:12:05.793Z,3.05
2023-05-01T13:14:08.909Z,2.33
2023-05-01T13:16:12.416Z,2.08
2023-05-01T13:18:14.231Z,2.00
2023-05-01T13:20:26.842Z,2.90
2023-05-01T13:22:33.122Z,2.45
2023-05-01T13:24:41.674Z,3.97
2023-05-01T13:26:45.073Z,4.97
2023-05-01T13:28:46.934Z,2.80
2023-05-01T13:30:48.343Z,2.80
2023-05-01T13:32:49.965Z,2.63
2023-05-01T13:34:51.887Z,2.50
2023-05-01T13:36:55.553Z,2.13
2023-05-01T13:38:57.587Z,4.30
2023-05-01T13:40:59.064Z,2.95
2023-05-01T13:43:00.450Z,2.47
2023-05-01T13:45:05.633Z,2.35
2023-05-01T13:47:07.089Z,3.47
2023-05-01T13:49:08.754Z,3.13
2023-05-01T13:51:11.462Z,2.83
2023-05-01T13:53:13.787Z,1.85
2023-05-01T13:55:17.489Z,2.15
2023-05-01T13:57:19.111Z,4.13
2023-05-01T13:59:20.614Z,2.42
2023-05-01T14:01:22.785Z,3.33
2023-05-01T14:03:24.792Z,2.53
2023-05-01T14:05:30.213Z,2.13
2023-05-01T14:07:32.205Z,2.78
2023-05-01T14:09:35.962Z,2.75
2023-05-01T14:11:47.637Z,3.22
2023-05-01T14:13:51.063Z,3.15
2023-05-01T14:15:53.098Z,2.90
2023-05-01T14:17:54.576Z,2.05
2023-05-01T14:19:56.125Z,3.28
2023-05-01T14:21:57.993Z,1.98
2023-05-01T14:24:00.272Z,3.92
2023-05-01T14:26:04.496Z,2.65
2023-05-01T14:28:11.651Z,3.17
2023-05-01T14:30:40.019Z,1.90
2023-05-01T14:32:41.848Z,2.05
2023-05-01T14:34:43.317Z,2.58
2023-05-01T14:36:44.739Z,2.90
2023-05-01T14:38:49.166Z,3.50
2023-05-01T14:40:50.610Z,2.42
2023-05-01T14:42:52.946Z,3.70
2023-05-01T14:44:54.425Z,5.53
2023-05-01T14:46:56.255Z,2.42
2023-05-01T14:48:58.813Z,2.03
2023-05-01T14:51:00.317Z,4.03
2023-05-01T14:53:01.867Z,3.63
2023-05-01T14:55:04.549Z,2.10
2023-05-01T14:57:06.403Z,3.17
2023-05-01T14:59:07.856Z,2.65
2023-05-01T15:01:09.223Z,2.55
2023-05-01T15:03:10.823Z,3.22
2023-05-01T15:05:12.302Z,2.38
2023-05-01T15:07:13.920Z,2.95
2023-05-01T15:09:15.313Z,2.58
2023-05-01T15:11:18.591Z,2.40
2023-05-01T15:13:21.121Z,3.20
2023-05-01T15:15:22.588Z,2.17
2023-05-01T15:17:24.042Z,1.85
2023-05-01T15:19:25.498Z,3.20
2023-05-01T15:21:26.858Z,2.15
2023-05-01T15:23:28.320Z,2.13
2023-05-01T15:25:29.684Z,2.97
2023-05-01T15:27:31.076Z,2.15
2023-05-01T15:29:32.509Z,1.55
2023-05-01T15:31:34.351Z,2.20
2023-05-01T15:33:36.048Z,1.52
2023-05-01T15:35:37.929Z,2.55
2023-05-01T15:37:39.314Z,1.67
2023-05-01T15:39:40.761Z,5.10
2023-05-01T15:41:42.888Z,1.85
2023-05-01T15:43:44.272Z,2.28
2023-05-01T15:45:45.891Z,2.90
2023-05-01T15:47:47.456Z,1.75
2023-05-01T15:49:48.855Z,4.57
2023-05-01T15:51:50.483Z,3.58
2023-05-01T15:53:51.879Z,2.55
2023-05-01T15:55:57.788Z,3.22
2023-05-01T15:57:59.546Z,3.13
2023-05-01T16:00:01.826Z,3.47
2023-05-01T16:02:03.583Z,3.20
2023-05-01T16:04:05.428Z,3.95
2023-05-01T16:06:08.331Z,3.50
2023-05-01T16:08:10.177Z,2.88
2023-05-01T16:10:12.137Z,2.47
2023-05-01T16:12:14.021Z,5.15
2023-05-01T16:14:15.750Z,2.78
2023-05-01T16:16:22.840Z,3.42
2023-05-01T16:18:24.958Z,3.08
2023-05-01T16:20:28.989Z,3.67
2023-05-01T16:22:32.617Z,3.20
2023-05-01T16:24:34.725Z,4.00
2023-05-01T16:26:36.090Z,3.20
2023-05-01T16:28:37.636Z,2.42
2023-05-01T16:30:42.402Z,2.47
2023-05-01T16:32:45.054Z,2.13
2023-05-01T16:34:46.578Z,3.58
2023-05-01T16:36:48.002Z,3.97
2023-05-01T16:38:49.378Z,3.38
2023-05-01T16:40:50.830Z,3.10
2023-05-01T16:42:54.021Z,3.13
2023-05-01T16:44:56.711Z,3.33
2023-05-01T16:46:58.798Z,5.22
2023-05-01T16:49:00.229Z,3.85
2023-05-01T16:51:05.182Z,4.03
2023-05-01T16:53:06.607Z,4.28
2023-05-01T16:55:09.092Z,3.60
2023-05-01T16:57:10.734Z,4.72
2023-05-01T16:59:12.226Z,2.83
2023-05-01T17:01:13.741Z,6.00
2023-05-01T17:03:16.117Z,5.10
2023-05-01T17:05:17.708Z,2.88
2023-05-01T17:07:19.116Z,4.25
2023-05-01T17:09:20.726Z,4.10
2023-05-01T17:11:22.588Z,4.57
2023-05-01T17:13:23.995Z,4.78
2023-05-01T17:15:25.375Z,3.30
2023-05-01T17:17:26.881Z,3.83
2023-05-01T17:19:28.317Z,4.00
2023-05-01T17:21:29.889Z,9.20
2023-05-01T17:23:31.279Z,4.05
2023-05-01T17:25:32.687Z,3.97
2023-05-01T17:27:35.185Z,2.83
2023-05-01T17:29:36.685Z,3.60
2023-05-01T17:31:38.195Z,2.50
2023-05-01T17:33:39.687Z,3.90
2023-05-01T17:35:41.235Z,4.25
2023-05-01T17:37:42.784Z,3.53
2023-05-01T17:39:44.285Z,4.78
2023-05-01T17:41:45.771Z,3.45
2023-05-01T17:43:47.300Z,4.57
2023-05-01T17:45:50.098Z,3.38
2023-05-01T17:47:51.684Z,3.88
2023-05-01T17:49:53.122Z,5.32
2023-05-01T17:51:54.530Z,3.10
2023-05-01T17:53:55.944Z,3.70
2023-05-01T17:55:58.228Z,3.35
2023-05-01T17:57:59.645Z,3.47
2023-05-01T18:00:01.754Z,3.75
2023-05-01T18:02:03.792Z,4.40
2023-05-01T18:04:05.529Z,3.75
2023-05-01T18:06:07.172Z,3.33
2023-05-01T18:08:08.659Z,4.93
2023-05-01T18:10:10.653Z,3.80
2023-05-01T18:12:12.358Z,4.40
2023-05-01T18:14:13.871Z,3.85
2023-05-01T18:16:15.885Z,3.33
2023-05-01T18:18:17.494Z,3.83
2023-05-01T18:20:19.490Z,4.57
2023-05-01T18:22:21.002Z,3.80
2023-05-01T18:24:22.477Z,4.80
2023-05-01T18:26:26.493Z,4.57
2023-05-01T18:28:30.006Z,3.22
2023-05-01T18:30:31.436Z,3.83
2023-05-01T18:32:46.154Z,4.70
2023-05-01T18:34:51.399Z,3.92
2023-05-01T18:36:54.516Z,3.35
2023-05-01T18:38:56.125Z,4.07
2023-05-01T18:40:57.510Z,3.70
2023-05-01T18:42:59.199Z,4.53
2023-05-01T18:45:00.837Z,4.15
2023-05-01T18:47:02.211Z,4.00
2023-05-01T18:49:03.595Z,5.28
2023-05-01T18:51:08.461Z,4.72
2023-05-01T18:53:10.660Z,5.00
2023-05-01T18:55:12.166Z,3.55
2023-05-01T18:57:13.577Z,6.25
2023-05-01T18:59:16.802Z,5.07
2023-05-01T19:01:18.333Z,4.35
2023-05-01T19:03:19.824Z,4.60
2023-05-01T19:05:22.528Z,4.53
2023-05-01T19:07:24.498Z,5.53
2023-05-01T19:09:26.005Z,3.90
2023-05-01T19:11:31.876Z,4.10
2023-05-01T19:13:33.726Z,4.15
2023-05-01T19:15:35.445Z,4.80
2023-05-01T19:17:37.249Z,5.25
2023-05-01T19:19:38.896Z,4.45
2023-05-01T19:21:40.281Z,4.45
2023-05-01T19:23:43.210Z,4.22
2023-05-01T19:25:44.634Z,5.38
2023-05-01T19:27:46.016Z,4.82
2023-05-01T19:29:47.485Z,4.63
2023-05-01T19:31:49.310Z,5.35
2023-05-01T19:33:53.715Z,4.75
2023-05-01T19:35:55.713Z,5.72
2023-05-01T19:37:58.582Z,5.63
2023-05-01T19:40:00.150Z,4.25
2023-05-01T19:42:02.283Z,5.78
2023-05-01T19:44:03.883Z,4.50
2023-05-01T19:46:05.405Z,4.13
2023-05-01T19:48:06.944Z,4.95
2023-05-01T19:50:09.182Z,4.05
2023-05-01T19:52:10.615Z,4.18
2023-05-01T19:54:12.321Z,4.03
2023-05-01T19:56:14.063Z,3.70
2023-05-01T19:58:15.625Z,4.15
2023-05-01T20:00:17.654Z,5.07
2023-05-01T20:02:19.144Z,5.40
2023-05-01T20:04:23.035Z,5.47
2023-05-01T20:06:24.698Z,6.07
2023-05-01T20:08:26.747Z,5.60
2023-05-01T20:10:28.262Z,4.10
2023-05-01T20:12:29.933Z,4.22
2023-05-01T20:14:33.458Z,6.15
2023-05-01T20:16:36.065Z,5.95
2023-05-01T20:18:37.698Z,5.55
2023-05-01T20:20:39.488Z,4.65
2023-05-01T20:22:40.941Z,6.05
2023-05-01T20:24:42.708Z,4.82
2023-05-01T20:26:44.152Z,7.20
2023-05-01T20:28:45.830Z,5.28
2023-05-01T20:30:48.575Z,6.55
2023-05-01T20:32:50.120Z,7.30
2023-05-01T20:34:55.110Z,5.53
2023-05-01T20:36:56.519Z,6.88
2023-05-01T20:38:58.007Z,5.03
2023-05-01T20:40:59.485Z,5.60
2023-05-01T20:43:00.910Z,5.70
2023-05-01T20:45:02.391Z,4.95
2023-05-01T20:47:03.779Z,8.43
2023-05-01T20:49:09.992Z,6.03
2023-05-01T20:51:11.941Z,6.13
2023-05-01T20:53:13.394Z,7.68
2023-05-01T20:55:14.837Z,10.70
2023-05-01T20:57:16.541Z,8.60
2023-05-01T20:59:18.037Z,6.95
2023-05-01T21:01:19.514Z,8.65
2023-05-01T21:03:21.070Z,7.53
2023-05-01T21:05:22.562Z,5.97
2023-05-01T21:07:24.117Z,5.70
2023-05-01T21:09:25.844Z,6.88
2023-05-01T21:11:27.398Z,6.40
2023-05-01T21:13:28.785Z,8.10
2023-05-01T21:17:57.937Z,7.55
2023-05-01T21:19:59.724Z,8.90
2023-05-01T21:22:01.451Z,6.80
2023-05-01T21:24:02.881Z,6.05
2023-05-01T21:26:04.294Z,7.78
2023-05-01T21:28:06.578Z,7.57
2023-05-01T21:30:08.825Z,6.82
2023-05-01T21:32:10.446Z,7.95
2023-05-01T21:34:12.514Z,9.88
2023-05-01T21:36:17.178Z,7.43
2023-05-01T21:38:18.617Z,8.05
2023-05-01T21:40:20.225Z,9.43
2023-05-01T21:42:21.648Z,9.45
2023-05-01T21:44:29.125Z,8.82
2023-05-01T21:46:30.593Z,6.38
2023-05-01T21:48:34.605Z,12.05
2023-05-01T21:50:40.143Z,9.55
2023-05-01T21:52:46.330Z,9.35
2023-05-01T21:54:47.845Z,8.35
2023-05-01T21:56:49.390Z,9.85
2023-05-01T21:58:51.685Z,9.55
2023-05-01T22:00:53.164Z,9.23
2023-05-01T22:02:54.718Z,9.30
2023-05-01T22:04:56.156Z,8.25
2023-05-01T22:06:57.557Z,10.18
2023-05-01T22:08:58.983Z,9.27
2023-05-01T22:11:00.432Z,11.18
2023-05-01T22:13:02.126Z,8.85
2023-05-01T22:15:03.884Z,9.77
2023-05-01T22:17:05.598Z,9.35
2023-05-01T22:19:07.069Z,10.48
2023-05-01T22:21:08.501Z,11.23
2023-05-01T22:23:10.076Z,10.70
2023-05-01T22:25:12.054Z,8.48
2023-05-01T22:27:13.482Z,9.95
2023-05-01T22:29:14.893Z,8.63
2023-05-01T22:31:16.326Z,8.68
2023-05-01T22:33:18.100Z,9.30
2023-05-01T22:35:19.530Z,10.63
2023-05-01T22:37:21.213Z,9.70
2023-05-01T22:39:23.159Z,8.55
2023-05-01T22:41:24.589Z,11.45
2023-05-01T22:43:25.967Z,10.35
2023-05-01T22:45:27.415Z,9.30
2023-05-01T22:47:28.846Z,11.27
2023-05-01T22:49:31.971Z,14.20
2023-05-01T22:51:33.428Z,10.27
2023-05-01T22:53:34.810Z,10.80
2023-05-01T22:55:36.878Z,12.00
2023-05-01T22:57:38.280Z,11.88
2023-05-01T22:59:40.914Z,11.55
2023-05-01T23:01:42.654Z,13.57
2023-05-01T23:03:44.337Z,12.75
2023-05-01T23:05:45.865Z,10.52
2023-05-01T23:07:47.961Z,12.57
2023-05-01T23:09:49.456Z,13.68
2023-05-01T23:11:50.928Z,13.20
2023-05-01T23:13:52.329Z,12.25
2023-05-01T23:15:53.991Z,14.68
2023-05-01T23:17:56.202Z,14.30
2023-05-01T23:19:58.799Z,15.75
2023-05-01T23:22:11.020Z,15.00
2023-05-01T23:24:18.245Z,15.52
2023-05-01T23:26:25.523Z,16.95
2023-05-01T23:28:28.334Z,14.38
2023-05-01T23:30:29.781Z,15.20
2023-05-01T23:32:31.889Z,15.27
2023-05-01T23:34:33.733Z,13.15
2023-05-01T23:36:35.320Z,15.88
2023-05-01T23:38:36.736Z,15.25
2023-05-01T23:40:38.384Z,16.35
2023-05-01T23:42:40.129Z,15.05
2023-05-01T23:44:41.657Z,17.77
2023-05-01T23:46:43.156Z,15.10
2023-05-01T23:48:44.618Z,16.60
2023-05-01T23:50:46.167Z,14.48
2023-05-01T23:52:47.720Z,18.88
2023-05-01T23:54:49.183Z,17.83
2023-05-01T23:56:50.597Z,18.65
2023-05-01T23:58:51.995Z,16.95
